logo
Search for airport 
image banner adimage banner adimage banner ad
image banner ad

YEWA - Eliwana

Located in Kartajirri Camp, Australia

ICAO - , IATA - WHB

Data provided by Airmate  

General information

Coordinates: S22°25'44" E116°53'14"
Elevation is 1576 feet MSL.
 
View others Airports in Western Australia

Operational data

Special qualification required
Current time UTC:
Current local time:
Weather at : - ( 0 km )
METAR: KANR 141625Z AUTO 02006KT 10SM CLR 35/24 A3030 RMK A01
View NOTAMs / SUP AIP / TFR affecting this airport [VIEW]
Communications frequencies: [VIEW]

Runways:

RWY identifierQFULength (ft)Width (ft)SurfaceLDA (ft)
10100°820298UNK
28280°820298UNK

Airport contact information

Address: Kartajirri Camp Australia

Satellite view of YEWA